createdAt,value
2022-10-30T00:01:15.150Z,100650.06
2022-10-30T00:03:42.099Z,100653.53
2022-10-30T00:06:08.836Z,100652.69
2022-10-30T00:08:35.621Z,100650.97
2022-10-30T00:11:09.435Z,100643.97
2022-10-30T00:13:36.309Z,100657.94
2022-10-30T00:16:04.402Z,100652.72
2022-10-30T00:18:31.135Z,100652.72
2022-10-30T00:20:57.854Z,100643.97
2022-10-30T00:23:24.804Z,100648.31
2022-10-30T00:25:51.516Z,100646.56
2022-10-30T00:28:19.210Z,100646.56
2022-10-30T00:30:46.181Z,100642.16
2022-10-30T00:33:12.854Z,100645.69
2022-10-30T00:35:39.761Z,100635.22
2022-10-30T00:38:06.825Z,100633.47
2022-10-30T00:40:33.517Z,100622.97
2022-10-30T00:43:00.158Z,100626.50
2022-10-30T00:45:28.023Z,100624.72
2022-10-30T00:47:57.886Z,100629.09
2022-10-30T00:53:03.501Z,100624.75
2022-10-30T00:55:37.785Z,100616.00
2022-10-30T00:58:07.760Z,100624.75
2022-10-30T01:00:34.429Z,100626.47
2022-10-30T01:03:01.472Z,100617.72
2022-10-30T01:05:28.987Z,100621.28
2022-10-30T01:07:56.029Z,100622.12
2022-10-30T01:10:22.979Z,100621.28
2022-10-30T01:12:49.947Z,100621.28
2022-10-30T01:15:16.723Z,100623.00
2022-10-30T01:17:46.551Z,100619.50
2022-10-30T01:20:17.841Z,100602.94
2022-10-30T01:23:02.902Z,100602.03
2022-10-30T01:25:49.272Z,100602.03
2022-10-30T01:28:23.287Z,100602.06
2022-10-30T01:31:00.701Z,100593.37
2022-10-30T01:33:45.876Z,100591.53
2022-10-30T01:36:15.928Z,100587.88
2022-10-30T01:38:44.849Z,100582.75
2022-10-30T01:41:11.527Z,100580.16
2022-10-30T01:43:38.482Z,100578.34
2022-10-30T01:46:12.290Z,100575.84
2022-10-30T01:49:00.618Z,100578.50
2022-10-30T01:51:33.504Z,100577.62
2022-10-30T01:54:04.243Z,100581.12
2022-10-30T01:56:44.782Z,100592.47
2022-10-30T01:59:30.198Z,100598.59
2022-10-30T02:01:57.335Z,100591.56
2022-10-30T02:04:24.388Z,100593.37
2022-10-30T02:06:51.607Z,100588.12
2022-10-30T02:09:18.398Z,100589.84
2022-10-30T02:11:46.096Z,100591.59
2022-10-30T02:14:12.842Z,100589.84
2022-10-30T02:16:42.749Z,100598.56
2022-10-30T02:19:09.912Z,100599.44
2022-10-30T02:21:36.732Z,100588.97
2022-10-30T02:24:03.487Z,100594.25
2022-10-30T02:26:30.512Z,100588.09
2022-10-30T02:28:58.309Z,100591.56
2022-10-30T02:31:25.069Z,100602.06
2022-10-30T02:33:52.049Z,100592.47
2022-10-30T02:36:19.756Z,100595.09
2022-10-30T02:38:47.227Z,100594.19
2022-10-30T02:41:14.658Z,100595.09
2022-10-30T02:43:41.690Z,100583.72
2022-10-30T02:46:09.852Z,100589.84
2022-10-30T02:48:37.076Z,100578.53
2022-10-30T02:51:04.124Z,100576.78
2022-10-30T02:53:30.804Z,100586.37
2022-10-30T02:56:03.405Z,100581.12
2022-10-30T02:58:30.267Z,100583.72
2022-10-30T03:00:57.274Z,100582.84
2022-10-30T03:03:24.315Z,100585.47
2022-10-30T03:05:51.144Z,100581.97
2022-10-30T03:08:18.087Z,100588.00
2022-10-30T03:10:44.832Z,100592.44
2022-10-30T03:13:11.505Z,100589.81
2022-10-30T03:15:38.433Z,100584.56
2022-10-30T03:18:05.673Z,100587.19
2022-10-30T03:20:32.411Z,100586.34
2022-10-30T03:22:59.394Z,100586.34
2022-10-30T03:25:26.086Z,100588.06
2022-10-30T03:27:53.663Z,100588.94
2022-10-30T03:30:20.618Z,100583.72
2022-10-30T03:32:47.579Z,100575.03
2022-10-30T03:35:14.313Z,100579.37
2022-10-30T03:37:41.422Z,100579.34
2022-10-30T03:40:08.506Z,100582.84
2022-10-30T03:42:39.388Z,100577.59
2022-10-30T03:45:06.687Z,100582.78
2022-10-30T03:47:33.339Z,100583.72
2022-10-30T03:50:00.090Z,100582.84
2022-10-30T03:52:27.327Z,100577.62
2022-10-30T03:54:54.017Z,100584.56
2022-10-30T03:57:21.321Z,100580.16
2022-10-30T03:59:48.802Z,100582.00
2022-10-30T04:02:16.774Z,100582.84
2022-10-30T04:04:44.053Z,100579.28
2022-10-30T04:07:10.914Z,100578.47
2022-10-30T04:09:37.732Z,100568.87
2022-10-30T04:12:04.924Z,100576.69
2022-10-30T04:14:31.666Z,100572.31
2022-10-30T04:16:58.709Z,100568.84
2022-10-30T04:19:25.804Z,100574.03
2022-10-30T04:21:52.893Z,100571.50
2022-10-30T04:24:19.668Z,100570.66
2022-10-30T04:26:46.967Z,100573.25
2022-10-30T04:29:13.665Z,100574.12
2022-10-30T04:31:40.454Z,100569.69
2022-10-30T04:34:07.615Z,100572.31
2022-10-30T04:36:34.323Z,100577.62
2022-10-30T04:39:02.393Z,100575.87
2022-10-30T04:41:29.688Z,100570.66
2022-10-30T04:43:57.025Z,100576.66
2022-10-30T04:46:23.783Z,100572.37
2022-10-30T04:48:57.390Z,100568.84
2022-10-30T04:51:24.154Z,100571.50
2022-10-30T04:53:51.275Z,100567.16
2022-10-30T04:56:18.582Z,100559.25
2022-10-30T04:58:45.386Z,100572.31
2022-10-30T05:01:12.503Z,100575.81
2022-10-30T05:03:39.229Z,100578.50
2022-10-30T05:06:07.605Z,100567.09
2022-10-30T05:08:35.942Z,100574.06
2022-10-30T05:11:04.115Z,100570.62
2022-10-30T05:13:30.932Z,100568.00
2022-10-30T05:15:57.854Z,100579.34
2022-10-30T05:18:24.570Z,100581.09
2022-10-30T05:20:51.288Z,100586.28
2022-10-30T05:23:18.341Z,100583.72
2022-10-30T05:25:45.103Z,100591.56
2022-10-30T05:28:12.030Z,100589.72
2022-10-30T05:30:40.356Z,100588.00
2022-10-30T05:33:09.294Z,100592.38
2022-10-30T05:35:36.166Z,100601.09
2022-10-30T05:38:04.217Z,100602.81
2022-10-30T05:40:31.027Z,100604.56
2022-10-30T05:42:58.576Z,100603.66
2022-10-30T05:45:25.964Z,100607.19
2022-10-30T05:48:00.253Z,100617.69
2022-10-30T05:50:30.235Z,100627.28
2022-10-30T05:53:09.506Z,100612.38
2022-10-30T05:55:37.669Z,100608.91
2022-10-30T05:58:05.664Z,100605.41
2022-10-30T06:00:34.147Z,100602.00
2022-10-30T06:03:07.834Z,100600.16
2022-10-30T06:05:35.250Z,100601.09
2022-10-30T06:08:02.499Z,100598.44
2022-10-30T06:10:29.224Z,100603.66
2022-10-30T06:12:57.010Z,100600.16
2022-10-30T06:15:25.537Z,100601.06
2022-10-30T06:17:52.529Z,100589.75
2022-10-30T06:20:19.999Z,100607.25
2022-10-30T06:22:59.302Z,100603.75
2022-10-30T06:25:26.881Z,100602.81
2022-10-30T06:27:54.481Z,100605.50
2022-10-30T06:30:21.730Z,100608.16
2022-10-30T06:32:50.730Z,100603.78
2022-10-30T06:35:17.980Z,100605.53
2022-10-30T06:37:47.794Z,100603.81
2022-10-30T06:40:15.723Z,100611.66
2022-10-30T06:42:47.804Z,100609.03
2022-10-30T06:45:16.586Z,100610.75
2022-10-30T06:47:44.014Z,100613.34
2022-10-30T06:50:11.959Z,100627.31
2022-10-30T06:52:38.759Z,100622.97
2022-10-30T06:55:08.274Z,100623.87
2022-10-30T06:57:35.952Z,100620.37
2022-10-30T07:00:03.669Z,100614.28
2022-10-30T07:02:30.841Z,100626.47
2022-10-30T07:04:57.785Z,100629.09
2022-10-30T07:07:24.685Z,100629.09
2022-10-30T07:09:52.040Z,100633.47
2022-10-30T07:12:19.425Z,100622.97
2022-10-30T07:14:46.866Z,100626.50
2022-10-30T07:17:14.031Z,100622.12
2022-10-30T07:19:42.103Z,100616.03
2022-10-30T07:22:08.826Z,100619.53
2022-10-30T07:24:37.587Z,100624.75
2022-10-30T07:27:04.311Z,100628.25
2022-10-30T07:29:31.191Z,100624.75
2022-10-30T07:32:03.042Z,100629.09
2022-10-30T07:34:30.289Z,100630.00
2022-10-30T07:36:57.098Z,100630.00
2022-10-30T07:39:24.115Z,100630.00
2022-10-30T07:41:50.998Z,100625.66
2022-10-30T07:44:20.911Z,100637.00
2022-10-30T07:46:49.003Z,100642.25
2022-10-30T07:49:17.136Z,100640.47
2022-10-30T07:51:46.586Z,100641.34
2022-10-30T07:54:13.988Z,100638.75
2022-10-30T07:56:40.668Z,100637.88
2022-10-30T07:59:09.278Z,100634.41
2022-10-30T08:01:36.780Z,100638.75
2022-10-30T08:04:04.918Z,100640.44
2022-10-30T08:06:31.673Z,100641.34
2022-10-30T08:08:59.672Z,100638.69
2022-10-30T08:11:26.707Z,100642.22
2022-10-30T08:13:53.640Z,100648.31
2022-10-30T08:16:20.457Z,100638.75
2022-10-30T08:18:49.093Z,100640.47
2022-10-30T08:21:17.569Z,100643.97
2022-10-30T08:23:45.350Z,100652.72
2022-10-30T08:26:12.559Z,100647.47
2022-10-30T08:28:39.230Z,100645.72
2022-10-30T08:31:08.648Z,100647.47
2022-10-30T08:33:42.467Z,100637.00
2022-10-30T08:36:11.802Z,100641.38
2022-10-30T08:38:38.833Z,100641.38
2022-10-30T08:41:05.741Z,100649.22
2022-10-30T08:43:32.809Z,100640.50
2022-10-30T08:46:00.238Z,100656.22
2022-10-30T08:48:26.983Z,100653.59
2022-10-30T08:50:57.708Z,100642.25
2022-10-30T08:53:25.229Z,100640.50
2022-10-30T08:55:52.915Z,100639.63
2022-10-30T08:58:20.311Z,100642.25
2022-10-30T09:00:47.384Z,100637.00
2022-10-30T09:03:32.331Z,100637.00
2022-10-30T09:06:01.766Z,100637.88
2022-10-30T09:08:29.363Z,100637.88
2022-10-30T09:10:56.719Z,100633.53
2022-10-30T09:13:24.790Z,100644.00
2022-10-30T09:15:52.434Z,100646.59
2022-10-30T09:18:19.430Z,100644.00
2022-10-30T09:20:48.650Z,100647.47
2022-10-30T09:23:15.472Z,100645.75
2022-10-30T09:25:44.778Z,100645.75
2022-10-30T09:28:12.127Z,100638.78
2022-10-30T09:30:41.391Z,100638.78
2022-10-30T09:33:09.766Z,100633.50
2022-10-30T09:35:37.250Z,100636.13
2022-10-30T09:38:04.173Z,100639.66
2022-10-30T09:40:40.367Z,100639.63
2022-10-30T09:43:15.449Z,100638.78
2022-10-30T09:45:50.356Z,100636.16
2022-10-30T09:48:17.312Z,100639.66
2022-10-30T09:50:56.009Z,100631.81
2022-10-30T09:53:26.140Z,100628.31
2022-10-30T09:56:09.393Z,100621.28
2022-10-30T09:58:39.363Z,100613.41
2022-10-30T10:01:10.504Z,100616.87
2022-10-30T10:03:56.405Z,100619.53
2022-10-30T10:06:25.190Z,100621.94
2022-10-30T10:08:59.391Z,100624.78
2022-10-30T10:11:48.730Z,100618.69
2022-10-30T10:14:18.671Z,100610.81
2022-10-30T10:16:45.782Z,100619.56
2022-10-30T10:19:31.376Z,100615.19
2022-10-30T10:21:59.288Z,100609.97
2022-10-30T10:24:26.706Z,100605.59
2022-10-30T10:26:53.342Z,100606.47
2022-10-30T10:29:49.749Z,100603.88
2022-10-30T10:32:30.510Z,100602.09
2022-10-30T10:35:03.057Z,100610.84
2022-10-30T10:37:32.759Z,100607.28
2022-10-30T10:39:59.666Z,100599.50
2022-10-30T10:42:32.515Z,100602.13
2022-10-30T10:44:59.438Z,100598.62
2022-10-30T10:47:32.293Z,100601.22
2022-10-30T10:50:02.050Z,100590.72
2022-10-30T10:52:31.533Z,100595.12
2022-10-30T10:54:59.439Z,100591.62
2022-10-30T10:57:26.479Z,100588.03
2022-10-30T10:59:54.760Z,100593.25
2022-10-30T11:02:24.619Z,100600.31
2022-10-30T11:04:52.528Z,100592.47
2022-10-30T11:07:21.006Z,100593.28
2022-10-30T11:09:48.374Z,100593.28
2022-10-30T11:12:15.288Z,100588.12
2022-10-30T11:14:41.945Z,100576.69
2022-10-30T11:17:15.074Z,100574.16
2022-10-30T11:19:42.024Z,100575.94
2022-10-30T11:22:12.735Z,100569.81
2022-10-30T11:24:39.470Z,100572.37
2022-10-30T11:27:18.342Z,100572.44
2022-10-30T11:29:52.145Z,100572.41
2022-10-30T11:32:22.544Z,100575.00
2022-10-30T11:35:07.656Z,100569.75
2022-10-30T11:37:35.567Z,100567.06
2022-10-30T11:40:22.563Z,100563.56
2022-10-30T11:42:55.196Z,100570.56
2022-10-30T11:45:40.795Z,100567.88
2022-10-30T11:48:18.272Z,100576.72
2022-10-30T11:50:49.223Z,100572.34
2022-10-30T11:53:18.771Z,100560.16
2022-10-30T11:55:46.072Z,100553.03
2022-10-30T11:58:20.981Z,100557.38
2022-10-30T12:00:47.905Z,100555.63
2022-10-30T12:03:26.639Z,100553.94
2022-10-30T12:05:53.294Z,100558.44
2022-10-30T12:08:21.181Z,100556.72
2022-10-30T12:10:59.313Z,100550.50
2022-10-30T12:13:26.370Z,100547.81
2022-10-30T12:16:11.656Z,100542.47
2022-10-30T12:18:38.929Z,100546.16
2022-10-30T12:21:05.639Z,100534.06
2022-10-30T12:23:32.379Z,100537.47
2022-10-30T12:26:00.336Z,100534.91
2022-10-30T12:28:27.549Z,100535.59
2022-10-30T12:30:55.588Z,100536.47
2022-10-30T12:33:22.512Z,100538.16
2022-10-30T12:35:56.082Z,100542.56
2022-10-30T12:38:40.277Z,100553.13
2022-10-30T12:41:25.860Z,100541.75
2022-10-30T12:44:08.057Z,100536.34
2022-10-30T12:46:40.473Z,100544.16
2022-10-30T12:49:27.679Z,100536.28
2022-10-30T12:51:58.819Z,100540.56
2022-10-30T12:54:44.616Z,100539.94
2022-10-30T12:57:12.938Z,100557.22
2022-10-30T12:59:46.818Z,100554.72
2022-10-30T13:02:32.365Z,100545.97
2022-10-30T13:05:04.492Z,100545.97
2022-10-30T13:08:03.895Z,100540.53
2022-10-30T13:10:43.623Z,100531.81
2022-10-30T13:13:11.593Z,100530.12
2022-10-30T13:15:41.630Z,100537.12
2022-10-30T13:18:16.729Z,100537.91
2022-10-30T13:20:46.901Z,100547.94
2022-10-30T13:23:21.433Z,100544.34
2022-10-30T13:25:54.316Z,100532.88
2022-10-30T13:28:26.046Z,100535.69
2022-10-30T13:31:07.531Z,100541.03
2022-10-30T13:33:53.372Z,100542.75
2022-10-30T13:36:26.061Z,100539.19
2022-10-30T13:38:56.799Z,100547.12
2022-10-30T13:41:44.439Z,100538.37
2022-10-30T13:44:29.845Z,100540.09
2022-10-30T13:46:57.800Z,100540.00
2022-10-30T13:49:44.797Z,100538.16
2022-10-30T13:52:16.187Z,100542.59
2022-10-30T13:54:46.519Z,100540.00
2022-10-30T13:57:13.799Z,100540.16
2022-10-30T14:00:01.460Z,100532.28
2022-10-30T14:02:34.832Z,100523.53
2022-10-30T14:05:13.163Z,100530.47
2022-10-30T14:07:46.042Z,100518.34
2022-10-30T14:10:20.971Z,100518.37
2022-10-30T14:12:57.448Z,100523.53
2022-10-30T14:15:26.697Z,100527.94
2022-10-30T14:18:13.018Z,100537.44
2022-10-30T14:21:00.350Z,100544.38
2022-10-30T14:23:39.095Z,100546.19
2022-10-30T14:26:06.108Z,100546.16
2022-10-30T14:28:36.595Z,100544.34
2022-10-30T14:31:04.296Z,100547.75
2022-10-30T14:33:40.564Z,100546.94
2022-10-30T14:36:26.460Z,100544.31
2022-10-30T14:38:54.719Z,100535.59
2022-10-30T14:41:27.272Z,100539.09
2022-10-30T14:44:19.585Z,100536.44
2022-10-30T14:46:46.668Z,100535.53
2022-10-30T14:49:16.628Z,100535.50
2022-10-30T14:51:51.747Z,100541.72
2022-10-30T14:54:27.386Z,100533.72
2022-10-30T14:56:54.292Z,100525.03
2022-10-30T14:59:26.360Z,100521.75
2022-10-30T15:01:53.146Z,100521.81
2022-10-30T15:04:21.902Z,100518.34
2022-10-30T15:07:09.003Z,100511.41
2022-10-30T15:09:54.452Z,100508.78
2022-10-30T15:12:34.719Z,100504.41
2022-10-30T15:15:02.679Z,100514.84
2022-10-30T15:17:42.407Z,100514.84
2022-10-30T15:20:19.186Z,100513.94
2022-10-30T15:22:47.728Z,100506.06
2022-10-30T15:25:16.228Z,100511.31
2022-10-30T15:27:42.941Z,100511.28
2022-10-30T15:30:15.696Z,100513.06
2022-10-30T15:32:42.402Z,100510.44
2022-10-30T15:35:19.620Z,100509.59
2022-10-30T15:38:02.627Z,100506.97
2022-10-30T15:40:30.423Z,100520.91
2022-10-30T15:42:58.430Z,100517.38
2022-10-30T15:45:35.201Z,100518.25
2022-10-30T15:48:05.530Z,100521.81
2022-10-30T15:50:33.483Z,100518.25
2022-10-30T15:53:00.347Z,100532.19
2022-10-30T15:55:28.992Z,100539.22
2022-10-30T15:58:13.037Z,100523.53
2022-10-30T16:00:40.782Z,100530.53
2022-10-30T16:03:15.899Z,100519.13
2022-10-30T16:05:42.949Z,100528.69
2022-10-30T16:08:12.162Z,100531.38
2022-10-30T16:10:38.851Z,100525.22
2022-10-30T16:13:05.517Z,100528.75
2022-10-30T16:15:38.283Z,100533.16
2022-10-30T16:18:10.824Z,100530.50
2022-10-30T16:20:39.492Z,100535.69
2022-10-30T16:23:06.420Z,100532.28
2022-10-30T16:25:37.271Z,100527.94
2022-10-30T16:28:04.932Z,100525.34
2022-10-30T16:30:32.505Z,100515.75
2022-10-30T16:32:59.732Z,100525.31
2022-10-30T16:35:27.225Z,100522.69
2022-10-30T16:37:55.084Z,100524.47
2022-10-30T16:40:25.934Z,100533.19
2022-10-30T16:43:00.256Z,100530.56
2022-10-30T16:45:34.184Z,100539.28
2022-10-30T16:48:08.349Z,100534.00
2022-10-30T16:50:36.314Z,100536.66
2022-10-30T16:53:07.755Z,100546.28
2022-10-30T16:55:36.015Z,100545.34
2022-10-30T16:58:03.047Z,100537.53
2022-10-30T17:00:34.027Z,100534.06
2022-10-30T17:03:07.062Z,100534.06
2022-10-30T17:05:34.554Z,100532.28
2022-10-30T17:08:02.328Z,100536.66
2022-10-30T17:10:35.756Z,100543.62
2022-10-30T17:13:21.098Z,100544.50
2022-10-30T17:15:51.982Z,100538.41
2022-10-30T17:18:21.005Z,100540.16
2022-10-30T17:21:02.327Z,100539.28
2022-10-30T17:23:29.467Z,100540.16
2022-10-30T17:25:56.891Z,100548.03
2022-10-30T17:28:27.740Z,100547.12
2022-10-30T17:30:54.923Z,100544.50
2022-10-30T17:33:27.165Z,100559.34
2022-10-30T17:38:26.295Z,100556.72
2022-10-30T17:40:53.719Z,100552.28
2022-10-30T17:43:20.876Z,100552.25
2022-10-30T17:45:50.406Z,100555.81
2022-10-30T17:48:17.761Z,100561.06
2022-10-30T17:50:44.929Z,100559.31
2022-10-30T17:53:24.594Z,100553.25
2022-10-30T17:55:56.963Z,100554.06
2022-10-30T17:58:24.557Z,100556.75
2022-10-30T18:00:51.769Z,100555.87
2022-10-30T18:03:19.097Z,100568.94
2022-10-30T18:05:46.668Z,100565.47
2022-10-30T18:08:14.469Z,100572.44
2022-10-30T18:10:44.737Z,100573.31
2022-10-30T18:13:15.546Z,100570.72
2022-10-30T18:15:43.855Z,100560.22
2022-10-30T18:18:10.912Z,100561.06
2022-10-30T18:20:39.200Z,100554.12
2022-10-30T18:23:12.775Z,100554.12
2022-10-30T18:25:47.527Z,100556.75
2022-10-30T18:28:15.053Z,100560.22
2022-10-30T18:30:45.091Z,100550.34
2022-10-30T18:33:12.226Z,100551.44
2022-10-30T18:35:39.850Z,100552.37
2022-10-30T18:38:07.117Z,100553.28
2022-10-30T18:40:34.395Z,100542.81
2022-10-30T18:43:04.778Z,100546.25
2022-10-30T18:45:37.216Z,100550.62
2022-10-30T18:48:04.446Z,100547.12
2022-10-30T18:50:31.698Z,100560.25
2022-10-30T18:52:59.159Z,100555.87
2022-10-30T18:55:32.730Z,100553.22
2022-10-30T18:58:01.553Z,100551.50
2022-10-30T19:00:39.710Z,100549.75
2022-10-30T19:03:17.860Z,100548.00
2022-10-30T19:05:48.652Z,100545.37
2022-10-30T19:08:15.691Z,100555.00
2022-10-30T19:10:44.747Z,100567.22
2022-10-30T19:13:17.190Z,100557.59
2022-10-30T19:15:45.316Z,100558.47
2022-10-30T19:18:12.724Z,100561.97
2022-10-30T19:20:58.949Z,100565.44
2022-10-30T19:23:27.949Z,100561.97
2022-10-30T19:25:54.850Z,100557.59
2022-10-30T19:28:22.036Z,100563.75
2022-10-30T19:30:54.967Z,100566.31
2022-10-30T19:33:22.741Z,100561.09
2022-10-30T19:35:55.625Z,100556.72
2022-10-30T19:38:23.020Z,100556.75
2022-10-30T19:40:50.843Z,100552.41
2022-10-30T19:43:17.869Z,100547.12
2022-10-30T19:45:45.239Z,100557.59
2022-10-30T19:48:40.639Z,100561.97
2022-10-30T19:51:11.932Z,100555.00
2022-10-30T19:53:39.915Z,100553.22
2022-10-30T19:56:07.521Z,100551.50
2022-10-30T19:58:34.799Z,100552.37
2022-10-30T20:01:03.299Z,100557.62
2022-10-30T20:03:30.825Z,100560.25
2022-10-30T20:05:57.880Z,100555.00
2022-10-30T20:08:26.241Z,100554.97
2022-10-30T20:10:54.624Z,100560.22
2022-10-30T20:13:23.641Z,100563.72
2022-10-30T20:15:50.866Z,100562.84
2022-10-30T20:18:19.213Z,100560.25
2022-10-30T20:20:50.569Z,100554.09
2022-10-30T20:23:18.307Z,100562.84
2022-10-30T20:25:45.403Z,100561.09
2022-10-30T20:28:16.094Z,100561.97
2022-10-30T20:30:45.572Z,100560.22
2022-10-30T20:33:12.554Z,100562.84
2022-10-30T20:35:39.338Z,100560.19
2022-10-30T20:38:06.732Z,100561.94
2022-10-30T20:40:34.213Z,100561.97
2022-10-30T20:43:02.989Z,100561.09
2022-10-30T20:45:30.408Z,100567.22
2022-10-30T20:47:58.851Z,100564.59
2022-10-30T20:50:27.340Z,100561.97
2022-10-30T20:52:54.834Z,100561.12
2022-10-30T20:55:21.892Z,100560.25
2022-10-30T20:57:48.762Z,100559.34
2022-10-30T21:00:16.328Z,100557.62
2022-10-30T21:02:43.285Z,100551.50
2022-10-30T21:05:30.223Z,100554.09
2022-10-30T21:07:58.888Z,100563.72
2022-10-30T21:10:30.324Z,100551.53
2022-10-30T21:12:59.818Z,100560.22
2022-10-30T21:15:29.339Z,100555.84
2022-10-30T21:17:56.361Z,100560.22
2022-10-30T21:20:23.378Z,100557.56
2022-10-30T21:22:50.489Z,100561.12
2022-10-30T21:25:17.571Z,100565.41
2022-10-30T21:30:16.303Z,100558.47
2022-10-30T21:32:43.402Z,100560.19
2022-10-30T21:35:10.121Z,100558.47
2022-10-30T21:37:37.316Z,100562.00
2022-10-30T21:40:05.002Z,100561.97
2022-10-30T21:42:32.945Z,100549.75
2022-10-30T21:45:00.180Z,100556.72
2022-10-30T21:47:26.842Z,100559.37
2022-10-30T21:49:53.515Z,100556.75
2022-10-30T21:52:20.455Z,100553.25
2022-10-30T21:54:47.107Z,100560.19
2022-10-30T21:57:13.763Z,100556.75
2022-10-30T21:59:40.650Z,100563.72
2022-10-30T22:02:07.318Z,100556.72
2022-10-30T22:04:34.778Z,100548.00
2022-10-30T22:07:01.454Z,100546.28
2022-10-30T22:09:29.165Z,100554.09
2022-10-30T22:11:56.074Z,100548.00
2022-10-30T22:14:24.619Z,100544.50
2022-10-30T22:16:52.544Z,100544.53
2022-10-30T22:19:19.526Z,100541.06
2022-10-30T22:21:46.195Z,100549.75
2022-10-30T22:24:13.785Z,100541.91
2022-10-30T22:26:42.166Z,100554.09
2022-10-30T22:29:08.868Z,100552.34
2022-10-30T22:31:35.638Z,100551.50
2022-10-30T22:34:02.604Z,100553.91
2022-10-30T22:36:29.910Z,100557.16
2022-10-30T22:39:07.418Z,100553.06
2022-10-30T22:41:38.048Z,100553.78
2022-10-30T22:44:08.102Z,100556.47
2022-10-30T22:46:35.968Z,100556.50
2022-10-30T22:49:02.697Z,100556.50
2022-10-30T22:51:31.120Z,100555.72
2022-10-30T22:54:01.115Z,100547.91
2022-10-30T22:56:28.859Z,100542.66
2022-10-30T22:58:56.160Z,100549.63
2022-10-30T23:01:24.821Z,100556.69
2022-10-30T23:03:52.390Z,100556.59
2022-10-30T23:06:19.164Z,100559.25
2022-10-30T23:08:46.296Z,100561.03
2022-10-30T23:11:14.680Z,100561.69
2022-10-30T23:13:41.436Z,100551.25
2022-10-30T23:16:09.298Z,100560.06
2022-10-30T23:18:35.952Z,100560.19
2022-10-30T23:21:07.169Z,100556.38
2022-10-30T23:23:34.794Z,100554.78
2022-10-30T23:26:02.167Z,100547.78
2022-10-30T23:28:28.823Z,100546.09
2022-10-30T23:30:55.798Z,100547.00
2022-10-30T23:33:22.444Z,100554.88
2022-10-30T23:35:49.130Z,100560.19
2022-10-30T23:38:16.047Z,100548.78
2022-10-30T23:40:42.717Z,100540.88
2022-10-30T23:43:09.450Z,100536.50
2022-10-30T23:45:36.376Z,100542.69
2022-10-30T23:48:03.153Z,100540.00
2022-10-30T23:50:29.868Z,100554.75
2022-10-30T23:52:56.767Z,100554.75
2022-10-30T23:55:24.118Z,100545.59
2022-10-30T23:57:50.947Z,100534.50
